createdAt,value
2019-05-10T00:00:13.296Z,69.60
2019-05-10T00:02:59.246Z,69.90
2019-05-10T00:05:45.642Z,69.60
2019-05-10T00:08:31.618Z,69.50
2019-05-10T00:11:07.560Z,69.20
2019-05-10T00:13:50.029Z,69.00
2019-05-10T00:16:18.486Z,68.60
2019-05-10T00:18:46.928Z,68.40
2019-05-10T00:21:15.430Z,68.20
2019-05-10T00:23:43.870Z,68.40
2019-05-10T00:26:12.311Z,69.00
2019-05-10T00:28:40.786Z,69.00
2019-05-10T00:31:09.237Z,69.00
2019-05-10T00:33:37.807Z,69.20
2019-05-10T00:36:06.367Z,69.00
2019-05-10T00:38:34.814Z,68.40
2019-05-10T00:41:03.411Z,68.30
2019-05-10T00:43:31.848Z,68.50
2019-05-10T00:46:00.433Z,69.00
2019-05-10T00:48:29.070Z,69.00
2019-05-10T00:50:57.505Z,68.80
2019-05-10T00:53:26.127Z,68.40
2019-05-10T00:55:54.636Z,68.10
2019-05-10T00:58:23.094Z,68.50
2019-05-10T01:00:51.549Z,68.70
2019-05-10T01:03:19.986Z,68.80
2019-05-10T01:05:48.538Z,69.20
2019-05-10T01:08:17.055Z,69.30
2019-05-10T01:10:45.558Z,69.20
2019-05-10T01:13:14.190Z,69.60
2019-05-10T01:15:46.589Z,69.90
2019-05-10T01:18:13.784Z,69.90
2019-05-10T01:20:42.290Z,70.40
2019-05-10T01:23:10.787Z,70.80
2019-05-10T01:25:39.210Z,71.10
2019-05-10T01:28:07.706Z,71.50
2019-05-10T01:30:36.169Z,71.00
2019-05-10T01:33:04.605Z,71.30
2019-05-10T01:35:33.050Z,71.50
2019-05-10T01:38:01.806Z,71.90
2019-05-10T01:40:30.253Z,72.00
2019-05-10T01:42:58.690Z,72.20
2019-05-10T01:45:27.246Z,72.60
2019-05-10T01:47:55.780Z,72.40
2019-05-10T01:50:24.287Z,72.30
2019-05-10T01:52:52.768Z,72.80
2019-05-10T01:55:21.318Z,72.80
2019-05-10T01:57:49.886Z,72.80
2019-05-10T02:00:19.092Z,72.50
2019-05-10T02:02:47.595Z,72.60
2019-05-10T02:05:16.445Z,72.70
2019-05-10T02:07:44.887Z,72.80
2019-05-10T02:10:13.407Z,73.10
2019-05-10T02:12:41.931Z,72.60
2019-05-10T02:15:10.370Z,72.70
2019-05-10T02:17:38.834Z,72.80
2019-05-10T02:20:07.278Z,73.60
2019-05-10T02:22:35.734Z,74.30
2019-05-10T02:25:05.840Z,74.50
2019-05-10T02:27:34.287Z,74.70
2019-05-10T02:30:02.768Z,75.20
2019-05-10T02:32:31.345Z,75.20
2019-05-10T02:34:59.789Z,75.40
2019-05-10T02:37:28.286Z,76.30
2019-05-10T02:39:56.738Z,76.90
2019-05-10T02:42:25.195Z,77.10
2019-05-10T02:44:53.694Z,77.30
2019-05-10T02:47:22.123Z,77.60
2019-05-10T02:49:50.560Z,77.00
2019-05-10T02:52:19.038Z,77.10
2019-05-10T02:54:47.591Z,77.30
2019-05-10T02:57:16.037Z,77.00
2019-05-10T02:59:44.487Z,76.60
2019-05-10T03:02:13.114Z,77.20
2019-05-10T03:04:41.573Z,77.70
2019-05-10T03:07:10.044Z,79.30
2019-05-10T03:09:38.495Z,80.00
2019-05-10T03:12:16.242Z,79.90
2019-05-10T03:14:44.724Z,80.50
2019-05-10T03:17:13.272Z,80.50
2019-05-10T03:19:41.739Z,81.10
2019-05-10T03:22:10.237Z,81.40
2019-05-10T03:24:38.727Z,82.30
2019-05-10T03:27:07.199Z,83.10
2019-05-10T03:29:35.713Z,84.30
2019-05-10T03:32:04.220Z,83.40
2019-05-10T03:34:32.732Z,83.60
2019-05-10T03:37:01.234Z,84.40
2019-05-10T03:39:29.855Z,84.40
2019-05-10T03:41:58.385Z,84.60
2019-05-10T03:44:26.891Z,84.70
2019-05-10T03:46:55.460Z,85.10
2019-05-10T03:49:23.903Z,84.20
2019-05-10T03:51:52.348Z,83.60
2019-05-10T03:54:20.848Z,82.80
2019-05-10T03:56:49.292Z,83.30
2019-05-10T03:59:17.722Z,83.20
2019-05-10T04:01:46.229Z,83.40
2019-05-10T04:04:14.667Z,82.60
2019-05-10T04:06:43.107Z,83.00
2019-05-10T04:09:11.591Z,82.20
2019-05-10T04:11:40.101Z,82.80
2019-05-10T04:14:08.551Z,83.00
2019-05-10T04:16:37.100Z,84.20
2019-05-10T04:19:05.536Z,84.30
2019-05-10T04:21:33.997Z,85.50
2019-05-10T04:24:02.578Z,85.20
2019-05-10T04:26:30.998Z,85.60
2019-05-10T04:28:59.463Z,85.40
2019-05-10T04:31:27.943Z,84.40
2019-05-10T04:33:56.407Z,85.40
2019-05-10T04:36:24.850Z,85.60
2019-05-10T04:38:53.413Z,85.60
2019-05-10T04:41:21.968Z,85.90
2019-05-10T04:43:50.424Z,85.80
2019-05-10T04:46:18.871Z,86.60
2019-05-10T04:48:47.347Z,86.40
2019-05-10T04:51:15.810Z,87.50
2019-05-10T04:53:44.311Z,88.10
2019-05-10T04:56:12.812Z,88.70
2019-05-10T04:58:41.290Z,88.60
2019-05-10T05:01:09.758Z,88.90
2019-05-10T05:03:38.205Z,88.80
2019-05-10T05:06:06.689Z,88.90
2019-05-10T05:08:35.235Z,87.90
2019-05-10T05:11:03.743Z,87.70
2019-05-10T05:13:32.191Z,86.20
2019-05-10T05:16:00.622Z,86.00
2019-05-10T05:18:29.178Z,86.00
2019-05-10T05:20:57.628Z,85.40
2019-05-10T05:23:26.107Z,86.40
2019-05-10T05:25:54.711Z,86.60
2019-05-10T05:28:24.661Z,86.50
2019-05-10T05:30:53.318Z,85.70
2019-05-10T05:33:21.872Z,86.30
2019-05-10T05:35:50.315Z,86.50
2019-05-10T05:38:18.814Z,85.90
2019-05-10T05:40:47.333Z,85.70
2019-05-10T05:43:15.770Z,85.70
2019-05-10T05:45:44.367Z,85.00
2019-05-10T05:48:16.196Z,86.10
2019-05-10T05:50:42.908Z,86.30
2019-05-10T05:53:11.390Z,86.30
2019-05-10T05:55:39.862Z,86.50
2019-05-10T05:58:25.230Z,87.10
2019-05-10T06:00:44.862Z,87.40
2019-05-10T06:03:08.652Z,86.40
2019-05-10T06:05:37.483Z,86.20
2019-05-10T06:08:21.473Z,87.10
2019-05-10T06:10:36.230Z,85.90
2019-05-10T06:13:04.669Z,85.60
2019-05-10T06:15:33.147Z,85.50
2019-05-10T06:18:03.519Z,85.40
2019-05-10T06:20:31.761Z,85.10
2019-05-10T06:23:06.419Z,86.00
2019-05-10T06:25:39.295Z,86.30
2019-05-10T06:28:00.526Z,85.90
2019-05-10T06:30:29.083Z,84.40
2019-05-10T06:33:00.991Z,86.00
2019-05-10T06:35:27.731Z,86.50
2019-05-10T06:37:56.223Z,85.30
2019-05-10T06:40:36.001Z,84.70
2019-05-10T06:42:55.100Z,85.00
2019-05-10T06:45:23.638Z,85.00
2019-05-10T06:47:53.398Z,84.70
2019-05-10T06:50:29.251Z,84.40
2019-05-10T06:52:52.359Z,84.30
2019-05-10T06:55:20.951Z,84.70
2019-05-10T06:57:50.481Z,82.90
2019-05-10T07:00:19.756Z,84.10
2019-05-10T07:02:48.165Z,84.60
2019-05-10T07:05:16.650Z,84.60
2019-05-10T07:07:45.669Z,84.40
2019-05-10T07:10:19.212Z,83.90
2019-05-10T07:12:45.445Z,84.40
2019-05-10T07:15:14.225Z,84.10
2019-05-10T07:17:47.011Z,83.40
2019-05-10T07:20:12.875Z,84.20
2019-05-10T07:22:41.338Z,84.40
2019-05-10T07:25:09.983Z,85.10
2019-05-10T07:27:38.891Z,85.70
2019-05-10T07:30:07.629Z,85.20
2019-05-10T07:32:36.154Z,82.20
2019-05-10T07:35:05.951Z,81.80
2019-05-10T07:37:35.076Z,82.30
2019-05-10T07:40:05.562Z,82.80
2019-05-10T07:42:34.122Z,80.70
2019-05-10T07:45:02.814Z,81.90
2019-05-10T07:47:32.632Z,83.50
2019-05-10T07:50:03.935Z,82.80
2019-05-10T07:52:36.557Z,83.50
2019-05-10T07:55:01.623Z,81.50
2019-05-10T07:57:30.318Z,83.20
2019-05-10T08:00:03.647Z,84.10
2019-05-10T08:02:29.149Z,83.20
2019-05-10T08:04:58.433Z,83.50
2019-05-10T08:07:29.228Z,83.10
2019-05-10T08:09:59.463Z,80.50
2019-05-10T08:12:29.337Z,82.30
2019-05-10T08:14:59.029Z,82.90
2019-05-10T08:17:28.709Z,81.70
2019-05-10T08:19:57.346Z,83.60
2019-05-10T08:22:25.761Z,80.90
2019-05-10T08:24:56.313Z,80.10
2019-05-10T08:27:24.466Z,78.60
2019-05-10T08:30:15.818Z,77.10
2019-05-10T08:32:25.529Z,76.50
2019-05-10T08:34:55.921Z,78.00
2019-05-10T08:37:30.928Z,80.60
2019-05-10T08:39:55.930Z,79.80
2019-05-10T08:42:40.186Z,79.40
2019-05-10T08:45:03.664Z,78.10
2019-05-10T08:47:27.634Z,76.40
2019-05-10T08:50:09.572Z,76.20
2019-05-10T08:52:30.856Z,76.80
2019-05-10T08:54:55.352Z,78.80
2019-05-10T08:57:23.871Z,78.10
2019-05-10T08:59:54.159Z,79.10
2019-05-10T09:02:28.864Z,74.40
2019-05-10T09:04:53.084Z,74.30
2019-05-10T09:07:23.279Z,75.40
2019-05-10T09:09:53.093Z,72.10
2019-05-10T09:12:23.057Z,72.30
2019-05-10T09:14:57.646Z,73.70
2019-05-10T09:17:28.160Z,72.40
2019-05-10T09:19:53.530Z,71.30
2019-05-10T09:22:25.891Z,69.50
2019-05-10T09:24:53.200Z,72.70
2019-05-10T09:27:22.477Z,71.70
2019-05-10T09:29:52.897Z,71.80
2019-05-10T09:32:28.611Z,69.50
2019-05-10T09:34:54.011Z,68.10
2019-05-10T09:37:22.866Z,67.30
2019-05-10T09:39:54.872Z,67.10
2019-05-10T09:42:26.762Z,69.00
2019-05-10T09:44:52.672Z,70.20
2019-05-10T09:47:22.198Z,68.20
2019-05-10T09:49:54.209Z,68.60
2019-05-10T09:52:21.109Z,67.60
2019-05-10T09:54:49.720Z,66.60
2019-05-10T09:57:18.277Z,67.50
2019-05-10T09:59:47.107Z,70.40
2019-05-10T10:02:18.618Z,64.50
2019-05-10T10:04:47.362Z,63.40
2019-05-10T10:07:18.726Z,62.70
2019-05-10T10:09:47.739Z,62.50
2019-05-10T10:12:17.581Z,62.80
2019-05-10T10:14:47.242Z,60.80
2019-05-10T10:17:18.360Z,64.60
2019-05-10T10:19:48.056Z,63.30
2019-05-10T10:22:17.403Z,67.70
2019-05-10T10:24:49.125Z,61.20
2019-05-10T10:27:17.218Z,58.50
2019-05-10T10:29:47.446Z,54.30
2019-05-10T10:32:15.962Z,54.40
2019-05-10T10:34:44.471Z,53.60
2019-05-10T10:37:14.716Z,52.30
2019-05-10T10:39:43.037Z,56.90
2019-05-10T10:42:13.221Z,59.50
2019-05-10T10:44:41.848Z,66.20
2019-05-10T10:47:10.330Z,52.00
2019-05-10T10:49:38.786Z,49.20
2019-05-10T10:52:11.386Z,48.60
2019-05-10T10:54:39.814Z,48.00
2019-05-10T10:57:08.024Z,48.80
2019-05-10T10:59:37.351Z,47.30
2019-05-10T11:02:29.027Z,47.20
2019-05-10T11:04:40.450Z,45.50
2019-05-10T11:07:10.382Z,47.00
2019-05-10T11:09:36.632Z,50.10
2019-05-10T11:12:05.466Z,47.20
2019-05-10T11:14:40.044Z,45.80
2019-05-10T11:17:04.130Z,47.40
2019-05-10T11:19:32.596Z,45.60
2019-05-10T11:22:02.251Z,46.30
2019-05-10T11:24:31.346Z,46.20
2019-05-10T11:27:01.089Z,48.20
2019-05-10T11:29:30.868Z,46.40
2019-05-10T11:32:14.411Z,45.90
2019-05-10T11:34:37.578Z,46.50
2019-05-10T11:36:59.722Z,46.60
2019-05-10T11:39:33.263Z,47.80
2019-05-10T11:42:02.266Z,47.20
2019-05-10T11:44:28.522Z,45.40
2019-05-10T11:46:56.970Z,45.40
2019-05-10T11:49:25.439Z,45.50
2019-05-10T11:51:58.583Z,47.20
2019-05-10T11:54:24.313Z,45.10
2019-05-10T11:56:58.476Z,48.50
2019-05-10T11:59:27.399Z,47.80
2019-05-10T12:01:57.839Z,45.60
2019-05-10T12:04:33.082Z,47.70
2019-05-10T12:06:53.860Z,46.20
2019-05-10T12:09:24.473Z,40.40
2019-05-10T12:11:56.444Z,36.70
2019-05-10T12:14:22.837Z,35.40
2019-05-10T12:16:54.631Z,34.70
2019-05-10T12:19:21.663Z,38.30
2019-05-10T12:21:52.625Z,35.40
2019-05-10T12:24:33.413Z,35.40
2019-05-10T12:29:21.298Z,34.90
2019-05-10T12:31:53.366Z,36.10
2019-05-10T12:34:20.694Z,36.60
2019-05-10T12:36:51.735Z,37.80
2019-05-10T12:39:21.431Z,40.20
2019-05-10T12:41:52.249Z,39.10
2019-05-10T12:44:19.746Z,37.10
2019-05-10T12:46:51.007Z,34.50
2019-05-10T12:49:18.503Z,37.00
2019-05-10T12:51:46.999Z,35.30
2019-05-10T12:54:18.460Z,32.50
2019-05-10T12:56:46.250Z,33.00
2019-05-10T12:59:14.902Z,32.00
2019-05-10T13:01:43.419Z,32.80
2019-05-10T13:04:14.676Z,34.20
2019-05-10T13:06:42.022Z,33.90
2019-05-10T13:09:10.472Z,34.60
2019-05-10T13:11:39.056Z,33.80
2019-05-10T13:14:09.540Z,36.20
2019-05-10T13:16:38.003Z,38.50
2019-05-10T13:19:06.611Z,34.00
2019-05-10T13:21:35.131Z,31.90
2019-05-10T13:24:03.632Z,30.60
2019-05-10T13:26:32.331Z,32.30
2019-05-10T13:29:02.174Z,32.80
2019-05-10T13:31:30.918Z,31.80
2019-05-10T13:33:59.399Z,32.90
2019-05-10T13:36:30.818Z,34.80
2019-05-10T13:38:58.412Z,36.20
2019-05-10T13:41:26.873Z,31.70
2019-05-10T13:43:58.894Z,31.70
2019-05-10T13:46:25.541Z,30.00
2019-05-10T13:48:54.032Z,28.50
2019-05-10T13:51:22.470Z,30.30
2019-05-10T13:53:53.844Z,30.90
2019-05-10T13:56:22.408Z,32.80
2019-05-10T13:58:51.309Z,29.10
2019-05-10T14:01:20.002Z,29.20
2019-05-10T14:04:00.370Z,31.40
2019-05-10T14:06:19.155Z,29.60
2019-05-10T14:08:48.590Z,30.90
2019-05-10T14:11:17.899Z,30.40
2019-05-10T14:13:46.448Z,31.00
2019-05-10T14:16:19.663Z,33.00
2019-05-10T14:18:45.431Z,30.50
2019-05-10T14:21:13.829Z,29.50
2019-05-10T14:23:42.337Z,29.40
2019-05-10T14:26:15.951Z,30.90
2019-05-10T14:28:41.223Z,31.10
2019-05-10T14:31:10.130Z,30.50
2019-05-10T14:33:38.698Z,31.40
2019-05-10T14:36:07.182Z,31.10
2019-05-10T14:38:35.717Z,32.80
2019-05-10T14:41:11.104Z,34.70
2019-05-10T14:43:34.642Z,35.20
2019-05-10T14:46:03.593Z,35.70
2019-05-10T14:48:35.454Z,35.50
2019-05-10T14:51:09.866Z,35.10
2019-05-10T14:53:32.902Z,34.30
2019-05-10T14:56:01.585Z,33.00
2019-05-10T14:58:30.399Z,32.30
2019-05-10T15:00:58.844Z,32.90
2019-05-10T15:03:27.284Z,33.20
2019-05-10T15:06:00.990Z,32.80
2019-05-10T15:08:26.001Z,32.30
2019-05-10T15:10:57.422Z,32.70
2019-05-10T15:13:28.320Z,32.70
2019-05-10T15:15:56.316Z,32.90
2019-05-10T15:18:24.941Z,33.90
2019-05-10T15:20:53.420Z,33.80
2019-05-10T15:23:21.968Z,33.70
2019-05-10T15:25:57.119Z,33.80
2019-05-10T15:28:20.718Z,33.70
2019-05-10T15:30:52.353Z,33.80
2019-05-10T15:33:19.615Z,34.00
2019-05-10T15:35:51.985Z,34.10
2019-05-10T15:38:18.495Z,34.70
2019-05-10T15:40:47.084Z,34.80
2019-05-10T15:43:16.820Z,35.10
2019-05-10T15:45:51.886Z,35.20
2019-05-10T15:48:16.158Z,35.10
2019-05-10T15:50:44.851Z,35.30
2019-05-10T15:53:13.788Z,35.60
2019-05-10T15:55:42.932Z,35.60
2019-05-10T15:58:14.667Z,35.40
2019-05-10T16:00:43.238Z,35.60
2019-05-10T16:03:11.937Z,35.70
2019-05-10T16:05:43.893Z,36.10
2019-05-10T16:08:13.653Z,37.50
2019-05-10T16:10:41.164Z,40.40
2019-05-10T16:13:14.541Z,41.10
2019-05-10T16:15:40.142Z,40.50
2019-05-10T16:18:08.850Z,40.20
2019-05-10T16:20:38.912Z,40.00
2019-05-10T16:23:08.907Z,40.10
2019-05-10T16:25:41.523Z,40.40
2019-05-10T16:28:08.114Z,40.60
2019-05-10T16:30:36.746Z,40.90
2019-05-10T16:33:16.095Z,40.90
2019-05-10T16:35:49.482Z,40.60
2019-05-10T16:38:15.349Z,40.90
2019-05-10T16:40:44.617Z,40.80
2019-05-10T16:43:16.173Z,40.90
2019-05-10T16:45:43.536Z,41.00
2019-05-10T16:48:12.078Z,41.10
2019-05-10T16:50:40.733Z,41.00
2019-05-10T16:53:09.705Z,41.50
2019-05-10T16:55:40.773Z,41.90
2019-05-10T16:58:14.422Z,42.10
2019-05-10T17:00:40.850Z,42.50
2019-05-10T17:03:13.081Z,42.30
2019-05-10T17:05:52.653Z,42.60
2019-05-10T17:08:13.407Z,42.80
2019-05-10T17:10:42.449Z,42.80
2019-05-10T17:13:11.634Z,42.90
2019-05-10T17:15:41.733Z,42.80
2019-05-10T17:18:16.673Z,42.60
2019-05-10T17:20:45.465Z,42.70
2019-05-10T17:23:11.383Z,42.90
2019-05-10T17:25:40.608Z,43.00
2019-05-10T17:28:09.680Z,43.40
2019-05-10T17:30:38.214Z,43.50
2019-05-10T17:33:06.784Z,43.70
2019-05-10T17:35:36.601Z,43.80
2019-05-10T17:38:08.032Z,43.60
2019-05-10T17:40:35.963Z,43.50
2019-05-10T17:43:04.730Z,43.70
2019-05-10T17:45:34.700Z,43.60
2019-05-10T17:48:08.270Z,43.90
2019-05-10T17:50:33.996Z,43.90
2019-05-10T17:53:02.548Z,44.00
2019-05-10T17:55:31.584Z,44.00
2019-05-10T17:58:00.146Z,44.00
2019-05-10T18:00:28.739Z,43.90
2019-05-10T18:02:57.413Z,44.10
2019-05-10T18:05:26.074Z,44.10
2019-05-10T18:07:54.636Z,44.60
2019-05-10T18:10:23.463Z,44.40
2019-05-10T18:12:57.278Z,44.60
2019-05-10T18:15:22.043Z,44.90
2019-05-10T18:17:50.548Z,44.70
2019-05-10T18:20:18.989Z,45.10
2019-05-10T18:22:47.450Z,45.10
2019-05-10T18:25:20.409Z,45.10
2019-05-10T18:27:46.190Z,45.40
2019-05-10T18:30:14.834Z,45.70
2019-05-10T18:32:43.546Z,45.60
2019-05-10T18:35:14.902Z,45.70
2019-05-10T18:37:42.202Z,45.60
2019-05-10T18:40:10.811Z,45.70
2019-05-10T18:42:40.644Z,45.60
2019-05-10T18:45:09.325Z,45.60
2019-05-10T18:47:37.870Z,45.40
2019-05-10T18:50:06.502Z,45.80
2019-05-10T18:52:35.332Z,45.70
2019-05-10T18:55:04.847Z,45.80
2019-05-10T18:57:33.335Z,45.90
2019-05-10T19:00:02.093Z,46.00
2019-05-10T19:02:30.699Z,46.30
2019-05-10T19:04:59.265Z,46.60
2019-05-10T19:07:27.765Z,46.50
2019-05-10T19:09:56.227Z,46.60
2019-05-10T19:12:25.080Z,46.70
2019-05-10T19:14:53.963Z,46.60
2019-05-10T19:17:22.619Z,46.40
2019-05-10T19:19:51.253Z,46.40
2019-05-10T19:22:19.859Z,46.70
2019-05-10T19:24:48.416Z,46.70
2019-05-10T19:27:17.027Z,46.60
2019-05-10T19:29:47.795Z,46.50
2019-05-10T19:32:18.236Z,46.60
2019-05-10T19:34:48.452Z,46.50
2019-05-10T19:37:27.949Z,46.50
2019-05-10T19:39:46.347Z,46.70
2019-05-10T19:42:14.884Z,46.70
2019-05-10T19:44:43.339Z,46.60
2019-05-10T19:47:17.816Z,46.50
2019-05-10T19:49:45.977Z,46.60
2019-05-10T19:52:12.082Z,46.70
2019-05-10T19:54:40.566Z,46.70
2019-05-10T19:57:16.181Z,46.90
2019-05-10T19:59:43.928Z,47.00
2019-05-10T20:02:09.682Z,47.40
2019-05-10T20:04:38.305Z,46.80
2019-05-10T20:07:06.735Z,46.90
2019-05-10T20:09:35.182Z,47.00
2019-05-10T20:12:03.724Z,46.90
2019-05-10T20:14:32.172Z,46.80
2019-05-10T20:17:00.642Z,46.70
2019-05-10T20:19:29.140Z,46.70
2019-05-10T20:21:57.632Z,47.20
2019-05-10T20:24:26.087Z,47.30
2019-05-10T20:26:54.572Z,47.50
2019-05-10T20:29:23.082Z,47.50
2019-05-10T20:31:51.554Z,47.60
2019-05-10T20:34:23.894Z,48.00
2019-05-10T20:36:50.170Z,48.30
2019-05-10T20:39:18.722Z,48.40
2019-05-10T20:41:47.196Z,48.60
2019-05-10T20:44:15.707Z,49.10
2019-05-10T20:46:44.214Z,49.20
2019-05-10T20:49:12.662Z,49.10
2019-05-10T20:51:41.144Z,49.30
2019-05-10T20:54:09.599Z,49.80
2019-05-10T20:56:38.127Z,49.90
2019-05-10T20:59:06.659Z,50.20
2019-05-10T21:01:36.855Z,50.30
2019-05-10T21:04:06.306Z,50.50
2019-05-10T21:06:34.774Z,50.80
2019-05-10T21:09:03.654Z,51.30
2019-05-10T21:11:32.173Z,51.10
2019-05-10T21:14:00.630Z,51.30
2019-05-10T21:16:29.166Z,51.70
2019-05-10T21:18:57.616Z,51.60
2019-05-10T21:21:26.204Z,51.90
2019-05-10T21:23:54.851Z,51.60
2019-05-10T21:26:23.298Z,52.60
2019-05-10T21:28:51.807Z,53.00
2019-05-10T21:31:20.236Z,52.40
2019-05-10T21:33:48.736Z,52.40
2019-05-10T21:36:17.215Z,52.50
2019-05-10T21:38:45.680Z,53.60
2019-05-10T21:41:14.151Z,53.20
2019-05-10T21:43:42.702Z,53.00
2019-05-10T21:46:11.186Z,53.80
2019-05-10T21:48:39.645Z,54.00
2019-05-10T21:51:08.237Z,54.40
2019-05-10T21:53:36.730Z,54.10
2019-05-10T21:56:05.333Z,54.40
2019-05-10T21:58:33.826Z,54.20
2019-05-10T22:01:02.438Z,53.60
2019-05-10T22:03:31.016Z,54.60
2019-05-10T22:05:59.507Z,54.20
2019-05-10T22:08:27.945Z,54.30
2019-05-10T22:10:56.404Z,54.30
2019-05-10T22:13:24.909Z,54.80
2019-05-10T22:15:53.421Z,54.40
2019-05-10T22:18:21.889Z,54.30
2019-05-10T22:20:50.383Z,54.50
2019-05-10T22:23:18.845Z,55.00
2019-05-10T22:25:47.294Z,55.00
2019-05-10T22:28:15.797Z,55.30
2019-05-10T22:30:44.756Z,54.90
2019-05-10T22:33:13.194Z,54.90
2019-05-10T22:35:41.672Z,55.00
2019-05-10T22:38:10.421Z,55.00
2019-05-10T22:40:38.858Z,55.00
2019-05-10T22:43:07.410Z,55.10
2019-05-10T22:45:35.890Z,55.00
2019-05-10T22:48:04.466Z,55.20
2019-05-10T22:50:33.051Z,55.80
2019-05-10T22:53:01.563Z,55.20
2019-05-10T22:55:30.106Z,55.20
2019-05-10T22:57:58.521Z,55.50
2019-05-10T23:00:27.008Z,55.40
2019-05-10T23:02:55.590Z,55.50
2019-05-10T23:05:24.187Z,55.80
2019-05-10T23:07:52.654Z,56.00
2019-05-10T23:10:21.206Z,55.60
2019-05-10T23:12:49.652Z,56.10
2019-05-10T23:15:18.272Z,56.10
2019-05-10T23:17:46.724Z,56.10
2019-05-10T23:20:15.186Z,56.10
2019-05-10T23:22:43.717Z,56.30
2019-05-10T23:25:12.241Z,56.90
2019-05-10T23:27:40.763Z,56.20
2019-05-10T23:30:09.380Z,56.50
2019-05-10T23:32:37.822Z,56.40
2019-05-10T23:35:06.884Z,56.60
2019-05-10T23:37:35.358Z,56.60
2019-05-10T23:40:07.391Z,56.50
2019-05-10T23:42:36.132Z,56.40
2019-05-10T23:45:06.099Z,56.40
2019-05-10T23:47:34.547Z,56.50
2019-05-10T23:50:03.108Z,56.60
2019-05-10T23:52:31.546Z,56.60
2019-05-10T23:55:00.017Z,56.60
2019-05-10T23:57:28.482Z,56.60
2019-05-10T23:59:57.259Z,56.60
